sensor_id;sensor_type;location;lat;lon;timestamp;P1;durP1;ratioP1;P2;durP2;ratioP2
64469;SDS011;50854;48.538;14.352;2023-05-07T00:00:31;4.07;;;3.00;;
64469;SDS011;50854;48.538;14.352;2023-05-07T00:01:31;8.57;;;3.30;;
64469;SDS011;50854;48.538;14.352;2023-05-07T00:02:31;4.77;;;3.20;;
64469;SDS011;50854;48.538;14.352;2023-05-07T00:03:32;4.15;;;3.20;;
64469;SDS011;50854;48.538;14.352;2023-05-07T00:04:33;4.47;;;2.95;;
64469;SDS011;50854;48.538;14.352;2023-05-07T00:05:36;4.75;;;2.97;;
64469;SDS011;50854;48.538;14.352;2023-05-07T00:06:37;4.05;;;3.08;;
64469;SDS011;50854;48.538;14.352;2023-05-07T00:07:38;5.30;;;3.27;;
64469;SDS011;50854;48.538;14.352;2023-05-07T00:08:38;6.77;;;3.33;;
64469;SDS011;50854;48.538;14.352;2023-05-07T00:09:38;4.10;;;3.07;;
64469;SDS011;50854;48.538;14.352;2023-05-07T00:10:38;4.57;;;2.90;;
64469;SDS011;50854;48.538;14.352;2023-05-07T00:11:39;3.83;;;3.00;;
64469;SDS011;50854;48.538;14.352;2023-05-07T00:12:39;3.30;;;2.70;;
64469;SDS011;50854;48.538;14.352;2023-05-07T00:13:40;5.35;;;3.20;;
64469;SDS011;50854;48.538;14.352;2023-05-07T00:14:40;4.90;;;3.17;;
64469;SDS011;50854;48.538;14.352;2023-05-07T00:15:41;3.55;;;3.00;;
64469;SDS011;50854;48.538;14.352;2023-05-07T00:16:41;3.80;;;2.97;;
64469;SDS011;50854;48.538;14.352;2023-05-07T00:17:41;4.20;;;3.13;;
64469;SDS011;50854;48.538;14.352;2023-05-07T00:18:41;5.10;;;3.60;;
64469;SDS011;50854;48.538;14.352;2023-05-07T00:19:42;4.10;;;2.53;;
64469;SDS011;50854;48.538;14.352;2023-05-07T00:20:42;8.10;;;3.40;;
64469;SDS011;50854;48.538;14.352;2023-05-07T00:21:42;5.40;;;3.33;;
64469;SDS011;50854;48.538;14.352;2023-05-07T00:22:42;9.30;;;3.03;;
64469;SDS011;50854;48.538;14.352;2023-05-07T00:23:43;5.77;;;3.00;;
64469;SDS011;50854;48.538;14.352;2023-05-07T00:24:43;5.80;;;3.20;;
64469;SDS011;50854;48.538;14.352;2023-05-07T00:25:43;3.00;;;2.70;;
64469;SDS011;50854;48.538;14.352;2023-05-07T00:26:43;3.47;;;2.67;;
64469;SDS011;50854;48.538;14.352;2023-05-07T00:27:44;5.97;;;2.90;;
64469;SDS011;50854;48.538;14.352;2023-05-07T00:28:44;4.47;;;3.10;;
64469;SDS011;50854;48.538;14.352;2023-05-07T00:29:44;3.93;;;2.73;;
64469;SDS011;50854;48.538;14.352;2023-05-07T00:30:44;6.87;;;3.07;;
64469;SDS011;50854;48.538;14.352;2023-05-07T00:31:45;5.00;;;3.27;;
64469;SDS011;50854;48.538;14.352;2023-05-07T00:32:45;6.57;;;3.47;;
64469;SDS011;50854;48.538;14.352;2023-05-07T00:33:45;5.77;;;3.30;;
64469;SDS011;50854;48.538;14.352;2023-05-07T00:34:46;7.32;;;3.40;;
64469;SDS011;50854;48.538;14.352;2023-05-07T00:35:46;7.03;;;3.60;;
64469;SDS011;50854;48.538;14.352;2023-05-07T00:36:47;4.90;;;3.37;;
64469;SDS011;50854;48.538;14.352;2023-05-07T00:37:47;4.13;;;3.40;;
64469;SDS011;50854;48.538;14.352;2023-05-07T00:38:48;6.03;;;3.65;;
64469;SDS011;50854;48.538;14.352;2023-05-07T00:39:48;4.00;;;3.33;;
64469;SDS011;50854;48.538;14.352;2023-05-07T00:40:48;9.73;;;3.43;;
64469;SDS011;50854;48.538;14.352;2023-05-07T00:41:49;5.53;;;3.70;;
64469;SDS011;50854;48.538;14.352;2023-05-07T00:42:51;6.57;;;3.88;;
64469;SDS011;50854;48.538;14.352;2023-05-07T00:43:57;3.90;;;3.38;;
64469;SDS011;50854;48.538;14.352;2023-05-07T00:44:58;9.10;;;3.75;;
64469;SDS011;50854;48.538;14.352;2023-05-07T00:45:59;7.93;;;4.45;;
64469;SDS011;50854;48.538;14.352;2023-05-07T00:46:59;8.23;;;3.70;;
64469;SDS011;50854;48.538;14.352;2023-05-07T00:48:01;5.03;;;3.58;;
64469;SDS011;50854;48.538;14.352;2023-05-07T00:49:02;7.55;;;3.78;;
64469;SDS011;50854;48.538;14.352;2023-05-07T00:50:02;4.50;;;3.20;;
64469;SDS011;50854;48.538;14.352;2023-05-07T00:51:03;5.80;;;3.60;;
64469;SDS011;50854;48.538;14.352;2023-05-07T00:52:03;5.73;;;3.70;;
64469;SDS011;50854;48.538;14.352;2023-05-07T00:53:04;6.03;;;3.60;;
64469;SDS011;50854;48.538;14.352;2023-05-07T00:54:04;8.80;;;4.37;;
64469;SDS011;50854;48.538;14.352;2023-05-07T00:55:05;10.20;;;3.95;;
64469;SDS011;50854;48.538;14.352;2023-05-07T00:57:06;5.78;;;3.65;;
64469;SDS011;50854;48.538;14.352;2023-05-07T00:58:06;5.23;;;3.70;;
64469;SDS011;50854;48.538;14.352;2023-05-07T00:59:07;6.33;;;3.73;;
64469;SDS011;50854;48.538;14.352;2023-05-07T01:00:08;6.15;;;3.67;;
64469;SDS011;50854;48.538;14.352;2023-05-07T01:02:09;4.32;;;3.25;;
64469;SDS011;50854;48.538;14.352;2023-05-07T01:03:10;5.15;;;3.47;;
64469;SDS011;50854;48.538;14.352;2023-05-07T01:04:10;5.20;;;3.33;;
64469;SDS011;50854;48.538;14.352;2023-05-07T01:05:11;8.73;;;3.90;;
64469;SDS011;50854;48.538;14.352;2023-05-07T01:06:12;4.80;;;3.38;;
64469;SDS011;50854;48.538;14.352;2023-05-07T01:07:13;5.60;;;3.33;;
64469;SDS011;50854;48.538;14.352;2023-05-07T01:08:13;13.07;;;3.47;;
64469;SDS011;50854;48.538;14.352;2023-05-07T01:10:15;4.97;;;3.63;;
64469;SDS011;50854;48.538;14.352;2023-05-07T01:11:15;4.93;;;3.63;;
64469;SDS011;50854;48.538;14.352;2023-05-07T01:12:16;4.85;;;3.83;;
64469;SDS011;50854;48.538;14.352;2023-05-07T01:13:17;4.47;;;3.50;;
64469;SDS011;50854;48.538;14.352;2023-05-07T01:14:18;7.40;;;3.30;;
64469;SDS011;50854;48.538;14.352;2023-05-07T01:15:19;7.72;;;3.75;;
64469;SDS011;50854;48.538;14.352;2023-05-07T01:16:19;4.43;;;3.50;;
64469;SDS011;50854;48.538;14.352;2023-05-07T01:17:20;5.40;;;3.70;;
64469;SDS011;50854;48.538;14.352;2023-05-07T01:18:20;3.77;;;3.10;;
64469;SDS011;50854;48.538;14.352;2023-05-07T01:19:21;4.22;;;3.38;;
64469;SDS011;50854;48.538;14.352;2023-05-07T01:20:22;4.43;;;3.70;;
64469;SDS011;50854;48.538;14.352;2023-05-07T01:21:24;6.40;;;3.85;;
64469;SDS011;50854;48.538;14.352;2023-05-07T01:22:28;10.57;;;4.38;;
64469;SDS011;50854;48.538;14.352;2023-05-07T01:23:28;8.10;;;4.22;;
64469;SDS011;50854;48.538;14.352;2023-05-07T01:24:30;7.30;;;4.28;;
64469;SDS011;50854;48.538;14.352;2023-05-07T01:26:31;8.77;;;3.78;;
64469;SDS011;50854;48.538;14.352;2023-05-07T01:27:31;6.33;;;4.27;;
64469;SDS011;50854;48.538;14.352;2023-05-07T01:28:33;5.93;;;4.00;;
64469;SDS011;50854;48.538;14.352;2023-05-07T01:29:33;8.67;;;4.00;;
64469;SDS011;50854;48.538;14.352;2023-05-07T01:30:34;6.23;;;3.90;;
64469;SDS011;50854;48.538;14.352;2023-05-07T01:31:35;4.85;;;4.07;;
64469;SDS011;50854;48.538;14.352;2023-05-07T01:32:41;7.57;;;4.68;;
64469;SDS011;50854;48.538;14.352;2023-05-07T01:33:41;9.93;;;4.88;;
64469;SDS011;50854;48.538;14.352;2023-05-07T01:34:42;6.00;;;4.70;;
64469;SDS011;50854;48.538;14.352;2023-05-07T01:35:45;18.73;;;4.78;;
64469;SDS011;50854;48.538;14.352;2023-05-07T01:36:45;6.28;;;4.35;;
64469;SDS011;50854;48.538;14.352;2023-05-07T01:37:46;7.78;;;5.22;;
64469;SDS011;50854;48.538;14.352;2023-05-07T01:38:47;6.82;;;4.63;;
64469;SDS011;50854;48.538;14.352;2023-05-07T01:39:47;6.07;;;4.40;;
64469;SDS011;50854;48.538;14.352;2023-05-07T01:40:48;5.78;;;3.97;;
64469;SDS011;50854;48.538;14.352;2023-05-07T01:41:48;7.37;;;5.17;;
64469;SDS011;50854;48.538;14.352;2023-05-07T01:42:49;6.85;;;5.05;;
64469;SDS011;50854;48.538;14.352;2023-05-07T01:43:49;6.60;;;4.53;;
64469;SDS011;50854;48.538;14.352;2023-05-07T01:51:56;9.35;;;5.70;;
64469;SDS011;50854;48.538;14.352;2023-05-07T01:52:56;6.77;;;5.07;;
64469;SDS011;50854;48.538;14.352;2023-05-07T01:53:56;9.57;;;5.13;;
64469;SDS011;50854;48.538;14.352;2023-05-07T01:54:57;7.47;;;5.38;;
64469;SDS011;50854;48.538;14.352;2023-05-07T01:55:58;9.63;;;5.23;;
64469;SDS011;50854;48.538;14.352;2023-05-07T01:56:58;7.60;;;5.50;;
64469;SDS011;50854;48.538;14.352;2023-05-07T01:57:58;7.03;;;5.87;;
64469;SDS011;50854;48.538;14.352;2023-05-07T01:58:59;8.07;;;5.50;;
64469;SDS011;50854;48.538;14.352;2023-05-07T01:59:59;9.57;;;6.10;;
64469;SDS011;50854;48.538;14.352;2023-05-07T02:00:59;7.80;;;6.27;;
64469;SDS011;50854;48.538;14.352;2023-05-07T02:01:59;8.23;;;6.23;;
64469;SDS011;50854;48.538;14.352;2023-05-07T02:03:00;9.73;;;6.00;;
64469;SDS011;50854;48.538;14.352;2023-05-07T02:04:00;8.43;;;5.77;;
64469;SDS011;50854;48.538;14.352;2023-05-07T02:05:01;10.03;;;5.80;;
64469;SDS011;50854;48.538;14.352;2023-05-07T02:06:01;8.10;;;5.97;;
64469;SDS011;50854;48.538;14.352;2023-05-07T02:07:01;9.57;;;5.77;;
64469;SDS011;50854;48.538;14.352;2023-05-07T02:08:02;8.20;;;5.63;;
64469;SDS011;50854;48.538;14.352;2023-05-07T02:09:02;10.70;;;6.30;;
64469;SDS011;50854;48.538;14.352;2023-05-07T02:10:02;7.93;;;5.90;;
64469;SDS011;50854;48.538;14.352;2023-05-07T02:11:03;9.90;;;6.10;;
64469;SDS011;50854;48.538;14.352;2023-05-07T02:12:03;9.25;;;6.22;;
64469;SDS011;50854;48.538;14.352;2023-05-07T02:13:04;13.05;;;6.25;;
64469;SDS011;50854;48.538;14.352;2023-05-07T02:14:04;9.30;;;6.10;;
64469;SDS011;50854;48.538;14.352;2023-05-07T02:15:05;8.32;;;6.15;;
64469;SDS011;50854;48.538;14.352;2023-05-07T02:16:06;7.72;;;6.10;;
64469;SDS011;50854;48.538;14.352;2023-05-07T02:17:07;9.35;;;6.50;;
64469;SDS011;50854;48.538;14.352;2023-05-07T02:18:07;8.90;;;6.53;;
64469;SDS011;50854;48.538;14.352;2023-05-07T02:19:08;13.48;;;7.30;;
64469;SDS011;50854;48.538;14.352;2023-05-07T02:20:09;10.27;;;6.90;;
64469;SDS011;50854;48.538;14.352;2023-05-07T02:21:13;10.20;;;6.85;;
64469;SDS011;50854;48.538;14.352;2023-05-07T02:22:13;10.87;;;6.50;;
64469;SDS011;50854;48.538;14.352;2023-05-07T02:23:13;10.60;;;7.30;;
64469;SDS011;50854;48.538;14.352;2023-05-07T02:24:13;11.07;;;6.27;;
64469;SDS011;50854;48.538;14.352;2023-05-07T02:25:14;10.43;;;7.10;;
64469;SDS011;50854;48.538;14.352;2023-05-07T02:26:14;9.27;;;6.63;;
64469;SDS011;50854;48.538;14.352;2023-05-07T02:27:14;11.13;;;6.60;;
64469;SDS011;50854;48.538;14.352;2023-05-07T02:28:14;12.90;;;7.10;;
64469;SDS011;50854;48.538;14.352;2023-05-07T02:29:15;8.27;;;6.27;;
64469;SDS011;50854;48.538;14.352;2023-05-07T02:30:15;12.53;;;6.43;;
64469;SDS011;50854;48.538;14.352;2023-05-07T02:31:15;10.67;;;7.13;;
64469;SDS011;50854;48.538;14.352;2023-05-07T02:32:16;178.17;;;109.23;;
64469;SDS011;50854;48.538;14.352;2023-05-07T02:33:16;90.67;;;55.10;;
64469;SDS011;50854;48.538;14.352;2023-05-07T02:34:16;32.13;;;20.30;;
64469;SDS011;50854;48.538;14.352;2023-05-07T02:35:17;18.85;;;12.65;;
64469;SDS011;50854;48.538;14.352;2023-05-07T02:36:17;14.93;;;10.33;;
64469;SDS011;50854;48.538;14.352;2023-05-07T02:37:17;10.57;;;5.67;;
64469;SDS011;50854;48.538;14.352;2023-05-07T02:38:18;9.83;;;7.20;;
64469;SDS011;50854;48.538;14.352;2023-05-07T02:39:18;11.07;;;5.90;;
64469;SDS011;50854;48.538;14.352;2023-05-07T02:40:18;11.77;;;6.30;;
64469;SDS011;50854;48.538;14.352;2023-05-07T02:41:18;11.47;;;6.43;;
64469;SDS011;50854;48.538;14.352;2023-05-07T02:42:18;11.03;;;6.53;;
64469;SDS011;50854;48.538;14.352;2023-05-07T02:43:19;9.90;;;6.30;;
64469;SDS011;50854;48.538;14.352;2023-05-07T02:44:19;9.13;;;6.63;;
64469;SDS011;50854;48.538;14.352;2023-05-07T02:45:19;11.77;;;6.77;;
64469;SDS011;50854;48.538;14.352;2023-05-07T02:46:19;10.10;;;6.63;;
64469;SDS011;50854;48.538;14.352;2023-05-07T02:47:20;9.90;;;6.77;;
64469;SDS011;50854;48.538;14.352;2023-05-07T02:48:20;10.60;;;6.57;;
64469;SDS011;50854;48.538;14.352;2023-05-07T02:49:20;11.07;;;7.10;;
64469;SDS011;50854;48.538;14.352;2023-05-07T02:50:20;11.63;;;6.47;;
64469;SDS011;50854;48.538;14.352;2023-05-07T02:51:21;11.30;;;6.97;;
64469;SDS011;50854;48.538;14.352;2023-05-07T02:52:22;8.80;;;6.28;;
64469;SDS011;50854;48.538;14.352;2023-05-07T02:53:22;10.33;;;7.10;;
64469;SDS011;50854;48.538;14.352;2023-05-07T02:54:22;10.47;;;6.90;;
64469;SDS011;50854;48.538;14.352;2023-05-07T02:55:22;9.53;;;6.83;;
64469;SDS011;50854;48.538;14.352;2023-05-07T02:56:26;10.53;;;6.50;;
64469;SDS011;50854;48.538;14.352;2023-05-07T02:57:26;10.43;;;6.65;;
64469;SDS011;50854;48.538;14.352;2023-05-07T02:58:26;10.53;;;6.87;;
64469;SDS011;50854;48.538;14.352;2023-05-07T02:59:27;8.82;;;6.97;;
64469;SDS011;50854;48.538;14.352;2023-05-07T03:00:27;10.60;;;7.07;;
64469;SDS011;50854;48.538;14.352;2023-05-07T03:01:27;14.60;;;6.77;;
64469;SDS011;50854;48.538;14.352;2023-05-07T03:02:28;9.67;;;6.60;;
64469;SDS011;50854;48.538;14.352;2023-05-07T03:03:28;13.73;;;8.17;;
64469;SDS011;50854;48.538;14.352;2023-05-07T03:04:28;9.93;;;7.00;;
64469;SDS011;50854;48.538;14.352;2023-05-07T03:05:28;11.63;;;7.40;;
64469;SDS011;50854;48.538;14.352;2023-05-07T03:06:29;15.43;;;8.23;;
64469;SDS011;50854;48.538;14.352;2023-05-07T03:07:29;9.63;;;7.17;;
64469;SDS011;50854;48.538;14.352;2023-05-07T03:08:29;11.60;;;7.10;;
64469;SDS011;50854;48.538;14.352;2023-05-07T03:09:29;12.53;;;8.10;;
64469;SDS011;50854;48.538;14.352;2023-05-07T03:10:30;13.85;;;8.20;;
64469;SDS011;50854;48.538;14.352;2023-05-07T03:11:30;10.80;;;8.00;;
64469;SDS011;50854;48.538;14.352;2023-05-07T03:12:30;14.60;;;8.67;;
64469;SDS011;50854;48.538;14.352;2023-05-07T03:13:31;15.23;;;9.23;;
64469;SDS011;50854;48.538;14.352;2023-05-07T03:14:31;13.70;;;8.97;;
64469;SDS011;50854;48.538;14.352;2023-05-07T03:15:31;14.03;;;9.53;;
64469;SDS011;50854;48.538;14.352;2023-05-07T03:16:32;12.93;;;9.53;;
64469;SDS011;50854;48.538;14.352;2023-05-07T03:17:32;16.63;;;10.23;;
64469;SDS011;50854;48.538;14.352;2023-05-07T03:18:32;14.97;;;10.67;;
64469;SDS011;50854;48.538;14.352;2023-05-07T03:19:32;19.97;;;11.17;;
64469;SDS011;50854;48.538;14.352;2023-05-07T03:20:33;22.70;;;12.20;;
64469;SDS011;50854;48.538;14.352;2023-05-07T03:21:33;17.87;;;11.60;;
64469;SDS011;50854;48.538;14.352;2023-05-07T03:22:34;17.13;;;11.25;;
64469;SDS011;50854;48.538;14.352;2023-05-07T03:23:34;16.33;;;11.23;;
64469;SDS011;50854;48.538;14.352;2023-05-07T03:24:34;17.30;;;11.30;;
64469;SDS011;50854;48.538;14.352;2023-05-07T03:25:35;17.97;;;11.40;;
64469;SDS011;50854;48.538;14.352;2023-05-07T03:26:35;18.45;;;11.48;;
64469;SDS011;50854;48.538;14.352;2023-05-07T03:27:36;15.30;;;10.27;;
64469;SDS011;50854;48.538;14.352;2023-05-07T03:28:36;17.02;;;10.55;;
64469;SDS011;50854;48.538;14.352;2023-05-07T03:29:37;13.77;;;10.07;;
64469;SDS011;50854;48.538;14.352;2023-05-07T03:30:37;14.20;;;9.40;;
64469;SDS011;50854;48.538;14.352;2023-05-07T03:31:37;15.90;;;9.80;;
64469;SDS011;50854;48.538;14.352;2023-05-07T03:32:37;14.00;;;9.70;;
64469;SDS011;50854;48.538;14.352;2023-05-07T03:33:39;14.07;;;9.43;;
64469;SDS011;50854;48.538;14.352;2023-05-07T03:34:48;13.70;;;8.65;;
64469;SDS011;50854;48.538;14.352;2023-05-07T03:35:49;15.57;;;9.90;;
64469;SDS011;50854;48.538;14.352;2023-05-07T03:36:49;14.93;;;9.60;;
64469;SDS011;50854;48.538;14.352;2023-05-07T03:37:50;15.53;;;8.80;;
64469;SDS011;50854;48.538;14.352;2023-05-07T03:38:50;15.02;;;8.93;;
64469;SDS011;50854;48.538;14.352;2023-05-07T03:39:51;11.93;;;8.57;;
64469;SDS011;50854;48.538;14.352;2023-05-07T03:40:51;13.27;;;8.57;;
64469;SDS011;50854;48.538;14.352;2023-05-07T03:41:51;13.23;;;8.97;;
64469;SDS011;50854;48.538;14.352;2023-05-07T03:42:51;13.10;;;8.57;;
64469;SDS011;50854;48.538;14.352;2023-05-07T03:43:52;12.80;;;8.20;;
64469;SDS011;50854;48.538;14.352;2023-05-07T03:44:52;13.60;;;8.50;;
64469;SDS011;50854;48.538;14.352;2023-05-07T03:45:52;11.00;;;7.63;;
64469;SDS011;50854;48.538;14.352;2023-05-07T03:46:55;15.48;;;9.23;;
64469;SDS011;50854;48.538;14.352;2023-05-07T03:47:55;16.65;;;8.95;;
64469;SDS011;50854;48.538;14.352;2023-05-07T03:48:57;17.17;;;9.27;;
64469;SDS011;50854;48.538;14.352;2023-05-07T03:50:00;14.73;;;9.60;;
64469;SDS011;50854;48.538;14.352;2023-05-07T03:51:00;12.47;;;8.87;;
64469;SDS011;50854;48.538;14.352;2023-05-07T03:52:00;14.90;;;8.73;;
64469;SDS011;50854;48.538;14.352;2023-05-07T03:53:01;12.90;;;8.83;;
64469;SDS011;50854;48.538;14.352;2023-05-07T03:54:01;15.80;;;9.37;;
64469;SDS011;50854;48.538;14.352;2023-05-07T03:55:01;14.57;;;9.90;;
64469;SDS011;50854;48.538;14.352;2023-05-07T03:56:01;14.17;;;9.13;;
64469;SDS011;50854;48.538;14.352;2023-05-07T03:57:02;19.17;;;9.70;;
64469;SDS011;50854;48.538;14.352;2023-05-07T03:58:02;13.67;;;9.67;;
64469;SDS011;50854;48.538;14.352;2023-05-07T03:59:02;14.63;;;9.77;;
64469;SDS011;50854;48.538;14.352;2023-05-07T04:00:03;16.57;;;10.07;;
64469;SDS011;50854;48.538;14.352;2023-05-07T04:01:04;16.00;;;10.05;;
64469;SDS011;50854;48.538;14.352;2023-05-07T04:02:04;14.10;;;9.60;;
64469;SDS011;50854;48.538;14.352;2023-05-07T04:03:05;14.87;;;9.40;;
64469;SDS011;50854;48.538;14.352;2023-05-07T04:04:06;16.50;;;9.23;;
64469;SDS011;50854;48.538;14.352;2023-05-07T04:05:06;13.33;;;9.40;;
64469;SDS011;50854;48.538;14.352;2023-05-07T04:06:07;13.57;;;9.37;;
64469;SDS011;50854;48.538;14.352;2023-05-07T04:07:07;19.47;;;9.27;;
64469;SDS011;50854;48.538;14.352;2023-05-07T04:08:07;14.23;;;9.37;;
64469;SDS011;50854;48.538;14.352;2023-05-07T04:09:07;14.83;;;9.37;;
64469;SDS011;50854;48.538;14.352;2023-05-07T04:10:08;14.97;;;9.60;;
64469;SDS011;50854;48.538;14.352;2023-05-07T04:11:08;17.05;;;8.93;;
64469;SDS011;50854;48.538;14.352;2023-05-07T04:12:09;14.23;;;9.60;;
64469;SDS011;50854;48.538;14.352;2023-05-07T04:13:09;15.53;;;9.27;;
64469;SDS011;50854;48.538;14.352;2023-05-07T04:14:09;16.57;;;10.00;;
64469;SDS011;50854;48.538;14.352;2023-05-07T04:15:09;14.40;;;9.70;;
64469;SDS011;50854;48.538;14.352;2023-05-07T04:16:10;16.10;;;9.93;;
64469;SDS011;50854;48.538;14.352;2023-05-07T04:17:10;18.87;;;9.60;;
64469;SDS011;50854;48.538;14.352;2023-05-07T04:18:10;13.30;;;9.27;;
64469;SDS011;50854;48.538;14.352;2023-05-07T04:19:11;13.77;;;8.90;;
64469;SDS011;50854;48.538;14.352;2023-05-07T04:20:13;15.63;;;8.77;;
64469;SDS011;50854;48.538;14.352;2023-05-07T04:21:14;15.82;;;9.90;;
64469;SDS011;50854;48.538;14.352;2023-05-07T04:22:15;18.75;;;10.32;;
64469;SDS011;50854;48.538;14.352;2023-05-07T04:23:15;12.77;;;9.27;;
64469;SDS011;50854;48.538;14.352;2023-05-07T04:24:16;15.97;;;9.53;;
64469;SDS011;50854;48.538;14.352;2023-05-07T04:25:16;12.00;;;9.13;;
64469;SDS011;50854;48.538;14.352;2023-05-07T04:26:16;12.67;;;8.93;;
64469;SDS011;50854;48.538;14.352;2023-05-07T04:27:16;14.60;;;9.40;;
64469;SDS011;50854;48.538;14.352;2023-05-07T04:28:17;13.50;;;8.90;;
64469;SDS011;50854;48.538;14.352;2023-05-07T04:29:17;13.63;;;8.88;;
64469;SDS011;50854;48.538;14.352;2023-05-07T04:30:18;14.10;;;9.00;;
64469;SDS011;50854;48.538;14.352;2023-05-07T04:31:18;15.10;;;8.67;;
64469;SDS011;50854;48.538;14.352;2023-05-07T04:32:18;12.63;;;8.73;;
64469;SDS011;50854;48.538;14.352;2023-05-07T04:33:18;13.37;;;9.07;;
64469;SDS011;50854;48.538;14.352;2023-05-07T04:34:19;14.30;;;9.03;;
64469;SDS011;50854;48.538;14.352;2023-05-07T04:35:21;14.82;;;9.38;;
64469;SDS011;50854;48.538;14.352;2023-05-07T04:36:21;12.03;;;8.27;;
64469;SDS011;50854;48.538;14.352;2023-05-07T04:37:21;13.70;;;8.83;;
64469;SDS011;50854;48.538;14.352;2023-05-07T04:38:22;12.93;;;9.02;;
64469;SDS011;50854;48.538;14.352;2023-05-07T04:40:23;13.82;;;9.32;;
64469;SDS011;50854;48.538;14.352;2023-05-07T04:41:23;14.37;;;9.67;;
64469;SDS011;50854;48.538;14.352;2023-05-07T04:42:24;12.67;;;9.47;;
64469;SDS011;50854;48.538;14.352;2023-05-07T04:43:24;17.00;;;9.85;;
64469;SDS011;50854;48.538;14.352;2023-05-07T04:44:25;13.87;;;10.00;;
64469;SDS011;50854;48.538;14.352;2023-05-07T04:45:25;15.13;;;10.07;;
64469;SDS011;50854;48.538;14.352;2023-05-07T04:46:25;14.73;;;10.40;;
64469;SDS011;50854;48.538;14.352;2023-05-07T04:47:26;15.13;;;10.03;;
64469;SDS011;50854;48.538;14.352;2023-05-07T04:48:26;14.80;;;10.00;;
64469;SDS011;50854;48.538;14.352;2023-05-07T04:49:27;20.38;;;10.32;;
64469;SDS011;50854;48.538;14.352;2023-05-07T04:50:27;14.80;;;10.27;;
64469;SDS011;50854;48.538;14.352;2023-05-07T04:51:27;15.80;;;10.67;;
64469;SDS011;50854;48.538;14.352;2023-05-07T04:52:28;19.40;;;10.77;;
64469;SDS011;50854;48.538;14.352;2023-05-07T04:53:28;21.00;;;11.90;;
64469;SDS011;50854;48.538;14.352;2023-05-07T04:54:28;17.47;;;11.57;;
64469;SDS011;50854;48.538;14.352;2023-05-07T04:55:28;21.63;;;13.20;;
64469;SDS011;50854;48.538;14.352;2023-05-07T04:56:29;21.83;;;13.37;;
64469;SDS011;50854;48.538;14.352;2023-05-07T04:57:32;27.52;;;13.13;;
64469;SDS011;50854;48.538;14.352;2023-05-07T04:58:32;26.25;;;16.27;;
64469;SDS011;50854;48.538;14.352;2023-05-07T04:59:33;31.07;;;15.80;;
64469;SDS011;50854;48.538;14.352;2023-05-07T05:00:33;28.23;;;16.70;;
64469;SDS011;50854;48.538;14.352;2023-05-07T05:01:33;29.70;;;17.23;;
64469;SDS011;50854;48.538;14.352;2023-05-07T05:02:34;33.13;;;17.93;;
64469;SDS011;50854;48.538;14.352;2023-05-07T05:03:34;30.63;;;19.08;;
64469;SDS011;50854;48.538;14.352;2023-05-07T05:04:34;33.50;;;18.53;;
64469;SDS011;50854;48.538;14.352;2023-05-07T05:05:34;34.50;;;18.47;;
64469;SDS011;50854;48.538;14.352;2023-05-07T05:06:35;29.83;;;18.20;;
64469;SDS011;50854;48.538;14.352;2023-05-07T05:07:35;37.07;;;19.03;;
64469;SDS011;50854;48.538;14.352;2023-05-07T05:08:35;31.80;;;18.30;;
64469;SDS011;50854;48.538;14.352;2023-05-07T05:09:35;30.47;;;17.20;;
64469;SDS011;50854;48.538;14.352;2023-05-07T05:10:36;33.53;;;18.63;;
64469;SDS011;50854;48.538;14.352;2023-05-07T05:11:36;31.93;;;17.83;;
64469;SDS011;50854;48.538;14.352;2023-05-07T05:12:36;31.30;;;18.90;;
64469;SDS011;50854;48.538;14.352;2023-05-07T05:13:37;33.27;;;18.97;;
64469;SDS011;50854;48.538;14.352;2023-05-07T05:14:37;32.13;;;17.87;;
64469;SDS011;50854;48.538;14.352;2023-05-07T05:15:37;31.43;;;17.87;;
64469;SDS011;50854;48.538;14.352;2023-05-07T05:16:37;27.73;;;17.00;;
64469;SDS011;50854;48.538;14.352;2023-05-07T05:17:38;29.47;;;17.43;;
64469;SDS011;50854;48.538;14.352;2023-05-07T05:18:38;31.70;;;17.90;;
64469;SDS011;50854;48.538;14.352;2023-05-07T05:19:39;25.73;;;16.33;;
64469;SDS011;50854;48.538;14.352;2023-05-07T05:20:39;30.20;;;15.40;;
64469;SDS011;50854;48.538;14.352;2023-05-07T05:21:39;29.60;;;17.37;;
64469;SDS011;50854;48.538;14.352;2023-05-07T05:22:40;24.27;;;16.33;;
64469;SDS011;50854;48.538;14.352;2023-05-07T05:23:41;27.42;;;16.50;;
64469;SDS011;50854;48.538;14.352;2023-05-07T05:24:41;26.27;;;16.60;;
64469;SDS011;50854;48.538;14.352;2023-05-07T05:25:41;27.95;;;16.85;;
64469;SDS011;50854;48.538;14.352;2023-05-07T05:26:42;28.07;;;17.43;;
64469;SDS011;50854;48.538;14.352;2023-05-07T05:27:42;27.67;;;16.33;;
64469;SDS011;50854;48.538;14.352;2023-05-07T05:28:42;31.37;;;17.30;;
64469;SDS011;50854;48.538;14.352;2023-05-07T05:29:43;26.92;;;15.38;;
64469;SDS011;50854;48.538;14.352;2023-05-07T05:30:43;27.03;;;16.73;;
64469;SDS011;50854;48.538;14.352;2023-05-07T05:31:44;27.33;;;17.60;;
64469;SDS011;50854;48.538;14.352;2023-05-07T05:32:44;26.93;;;16.03;;
64469;SDS011;50854;48.538;14.352;2023-05-07T05:33:45;28.83;;;18.80;;
64469;SDS011;50854;48.538;14.352;2023-05-07T05:34:45;25.80;;;17.03;;
64469;SDS011;50854;48.538;14.352;2023-05-07T05:35:45;25.50;;;17.40;;
64469;SDS011;50854;48.538;14.352;2023-05-07T05:36:45;27.53;;;16.97;;
64469;SDS011;50854;48.538;14.352;2023-05-07T05:37:46;27.73;;;16.50;;
64469;SDS011;50854;48.538;14.352;2023-05-07T05:38:47;28.55;;;16.38;;
64469;SDS011;50854;48.538;14.352;2023-05-07T05:39:47;26.97;;;15.23;;
64469;SDS011;50854;48.538;14.352;2023-05-07T05:40:47;24.20;;;15.32;;
64469;SDS011;50854;48.538;14.352;2023-05-07T05:41:48;21.13;;;13.50;;
64469;SDS011;50854;48.538;14.352;2023-05-07T05:42:48;26.70;;;15.60;;
64469;SDS011;50854;48.538;14.352;2023-05-07T05:43:48;24.13;;;15.87;;
64469;SDS011;50854;48.538;14.352;2023-05-07T05:44:49;24.53;;;15.97;;
64469;SDS011;50854;48.538;14.352;2023-05-07T05:45:49;25.93;;;15.30;;
64469;SDS011;50854;48.538;14.352;2023-05-07T05:46:49;21.83;;;14.90;;
64469;SDS011;50854;48.538;14.352;2023-05-07T05:47:50;27.43;;;15.87;;
64469;SDS011;50854;48.538;14.352;2023-05-07T05:48:50;20.93;;;14.17;;
64469;SDS011;50854;48.538;14.352;2023-05-07T05:49:50;23.83;;;14.40;;
64469;SDS011;50854;48.538;14.352;2023-05-07T05:50:50;22.73;;;14.53;;
64469;SDS011;50854;48.538;14.352;2023-05-07T05:51:51;20.90;;;13.70;;
64469;SDS011;50854;48.538;14.352;2023-05-07T05:52:51;21.90;;;13.80;;
64469;SDS011;50854;48.538;14.352;2023-05-07T05:53:53;24.83;;;14.77;;
64469;SDS011;50854;48.538;14.352;2023-05-07T05:55:05;17.50;;;12.77;;
64469;SDS011;50854;48.538;14.352;2023-05-07T05:56:06;20.80;;;12.82;;
64469;SDS011;50854;48.538;14.352;2023-05-07T05:57:07;19.03;;;12.57;;
64469;SDS011;50854;48.538;14.352;2023-05-07T05:58:07;19.20;;;13.17;;
64469;SDS011;50854;48.538;14.352;2023-05-07T05:59:07;16.30;;;12.20;;
64469;SDS011;50854;48.538;14.352;2023-05-07T06:00:08;18.77;;;13.10;;
64469;SDS011;50854;48.538;14.352;2023-05-07T06:01:08;16.95;;;12.20;;
64469;SDS011;50854;48.538;14.352;2023-05-07T06:02:08;18.67;;;11.27;;
64469;SDS011;50854;48.538;14.352;2023-05-07T06:03:09;22.50;;;12.00;;
64469;SDS011;50854;48.538;14.352;2023-05-07T06:04:10;23.00;;;12.23;;
64469;SDS011;50854;48.538;14.352;2023-05-07T06:05:10;17.60;;;11.53;;
64469;SDS011;50854;48.538;14.352;2023-05-07T06:06:10;16.20;;;11.43;;
64469;SDS011;50854;48.538;14.352;2023-05-07T06:07:11;15.50;;;10.47;;